Broomfield, CO (80023)

11:49 PM MST on February 25, 2017 (GMT -0700)
Anthem Highlands | | Change Station

Elev 5301 ft 39.99 °N, 105.02 °W | Updated 2 seconds ago

Scattered Clouds
Scattered Clouds
27.0 °F
Feels Like 27 °F
N
0.0
Wind Variable Wind from WNW
Gusts 0.0 mph

Today
High -- | Low -- °F
--% Chance of Precip.
Yesterday
High -- | Low -- °F
Precip. -- in
Pressure 29.77 in
Visibility 10.0 miles
Clouds Scattered Clouds 8500 ft
Windchill 27 °F
Dew Point -1 °F
Humidity 29%
Rainfall 0.05 in
Snow Depth Not available.
6:38 AM 5:47 PM
Waning Crescent, 0% visible
METAR KEIK 260634Z AUTO 34003KT 10SM SCT085 M04/M15 A2977 RMK AO2 T10361154
Pressure 29.77 in
Visibility 10.0 miles
Clouds Scattered Clouds 8500 ft
Windchill 27 °F
Dew Point -1 °F
Humidity 29%
Rainfall 0.05 in
Snow Depth Not available.
6:38 AM 5:47 PM
Waning Crescent, 0% visible
METAR KEIK 260634Z AUTO 34003KT 10SM SCT085 M04/M15 A2977 RMK AO2 T10361154

Get Your Daily Forecast Email!

Thanks for signing up!

Be on the lookout for a verification email in your inbox.

You'll start receiving the daily forecast at 8 AM.

×

10-Day Weather Forecast

Almanac

Astronomy

Feb. 25, 2017 Rise Set
Actual Time
Civil Twilight
Nautical Twilight
Astronomical Twilight
Moon
Length of Visible Light
Length of Day
Tomorrow will be .
, % of the Moon is Illuminated

Today's Extremes

State Highs State Lows

Community

WunderPhotos

Upload Photos

1,962,540 photos uploaded!

WunderBlog® & News

Nearby

Air Quality

  Air Quality AQ Index Pollutant
Not available.

Snow Depth

Station Depth Elevation

Earthquake Activity

City Distance Mag. Time & Date
Minimum magnitude displayed is 2.5.

Coastal Water Temperatures

Place Temperature

Stations

Nearby Weather Stations

Station Location Temp. Windchill Dew Point Humidity Wind Precip. Elev Updated Type
                   

Watches & Warnings

There are currently no watches in effect.